Time;durP1;ratioP1;P1;durP2;ratioP2;P2;SDS_P1;SDS_P2;PMS_P1;PMS_P2;Temp;Humidity;BMP_temperature;BMP_pressure;BME280_temperature;BME280_humidity;BME280_pressure;Samples;Min_cycle;Max_cycle;Signal;HPM_P1;HPM_P2
2022/03/15 00:01:29;;;;;;;22.03;14.57;;;;;;;-0.96;69.29;98891.84;6269702;22;20577;-88
2022/03/15 00:03:57;;;;;;;25.53;16.47;;;;;;;-1.11;69.13;98865.09;6270793;22;20164;-85
2022/03/15 00:06:24;;;;;;;31.17;16.97;;;;;;;-0.90;68.72;98897.09;6220513;22;20179;-83
2022/03/15 00:08:51;;;;;;;28.93;17.10;;;;;;;-0.53;68.41;98928.63;6220264;22;20222;-83
2022/03/15 00:11:19;;;;;;;27.90;15.93;;;;;;;-1.09;68.62;98858.38;6218709;22;20685;-90
2022/03/15 00:13:47;;;;;;;26.23;15.17;;;;;;;-0.93;68.54;98893.63;6243856;22;20642;-84
2022/03/15 00:16:14;;;;;;;24.27;14.03;;;;;;;-0.90;68.54;98909.81;6219122;22;20172;-85
2022/03/15 00:18:52;;;;;;;21.57;13.60;;;;;;;-1.04;68.66;98918.72;6220393;22;20530;-87
2022/03/15 00:21:21;;;;;;;20.30;13.03;;;;;;;-1.58;69.95;98871.31;6270558;22;20177;-83
2022/03/15 00:23:48;;;;;;;23.97;12.30;;;;;;;-1.51;70.16;98880.84;6219010;22;20529;-85
2022/03/15 00:26:16;;;;;;;16.20;11.43;;;;;;;-1.37;70.13;98919.38;6243613;22;20175;-84
2022/03/15 00:28:43;;;;;;;21.93;12.90;;;;;;;-1.27;70.35;98929.00;6243921;22;20527;-84
2022/03/15 00:31:11;;;;;;;22.30;13.47;;;;;;;-1.68;70.34;98859.16;6218904;22;20661;-85
2022/03/15 00:33:39;;;;;;;22.33;12.67;;;;;;;-1.33;71.00;98918.66;6243682;22;20171;-88
2022/03/15 00:36:06;;;;;;;16.60;10.87;;;;;;;-1.75;71.20;98873.31;6247448;22;20163;-88
2022/03/15 00:38:35;;;;;;;21.80;11.73;;;;;;;-1.58;72.61;98944.09;6247593;22;20603;-86
2022/03/15 00:41:04;;;;;;;19.83;11.53;;;;;;;-1.98;72.18;98838.72;6271775;22;20172;-82
2022/03/15 00:43:36;;;;;;;17.80;11.73;;;;;;;-1.51;71.83;98887.59;6245134;22;20569;-82
2022/03/15 00:46:03;;;;;;;21.53;11.40;;;;;;;-1.27;71.17;98929.88;6219020;22;20181;-87
2022/03/15 00:48:31;;;;;;;17.60;10.70;;;;;;;-1.87;71.61;98844.16;6269004;22;20173;-87
2022/03/15 00:50:59;;;;;;;17.77;12.03;;;;;;;-1.72;72.08;98877.63;6192981;22;20667;-85
2022/03/15 00:53:26;;;;;;;16.37;10.70;;;;;;;-1.61;72.79;98927.09;6218028;22;20240;-86
2022/03/15 00:55:53;;;;;;;23.20;12.97;;;;;;;-1.73;72.74;98922.47;6218845;22;20693;-86
2022/03/15 00:58:23;;;;;;;20.43;12.40;;;;;;;-2.39;73.42;98821.28;6244843;22;20510;-87
2022/03/15 01:00:50;;;;;;;19.67;12.10;;;;;;;-2.53;73.38;98817.44;6244207;22;20173;-83
2022/03/15 01:03:18;;;;;;;23.07;13.13;;;;;;;-2.28;74.50;98870.72;6218622;22;20193;-87
2022/03/15 01:05:45;;;;;;;23.00;11.57;;;;;;;-2.03;74.59;98887.63;6243853;22;20639;-88
2022/03/15 01:08:14;;;;;;;19.53;11.97;;;;;;;-1.93;74.56;98920.09;6244204;22;20173;-83
2022/03/15 01:10:43;;;;;;;20.40;11.40;;;;;;;-1.92;74.26;98920.19;6224874;22;20204;-83
2022/03/15 01:13:14;;;;;;;21.60;11.67;;;;;;;-2.47;74.31;98832.03;6224772;22;20580;-86
2022/03/15 01:15:44;;;;;;;20.50;11.53;;;;;;;-2.22;74.53;98870.91;6243317;22;20176;-83
2022/03/15 01:18:13;;;;;;;19.80;11.50;;;;;;;-2.06;74.82;98908.66;6243345;22;20175;-86
2022/03/15 01:20:44;;;;;;;22.03;13.63;;;;;;;-2.24;74.56;98867.47;6244822;22;20162;-82
2022/03/15 01:23:11;;;;;;;26.27;13.20;;;;;;;-2.09;74.72;98895.91;6218686;22;20219;-82
2022/03/15 01:25:39;;;;;;;23.93;13.87;;;;;;;-2.29;75.35;98860.53;6243372;22;20170;-84
2022/03/15 01:28:09;;;;;;;23.20;13.83;;;;;;;-1.98;74.57;98899.63;6218574;22;20174;-80
2022/03/15 01:30:36;;;;;;;27.73;15.07;;;;;;;-2.39;73.98;98823.84;6242100;22;20207;-84
2022/03/15 01:33:04;;;;;;;26.20;16.03;;;;;;;-2.26;74.68;98851.34;6243298;22;20162;-86
2022/03/15 01:35:35;;;;;;;25.53;16.67;;;;;;;-2.74;74.41;98766.03;6193044;22;20543;-85
2022/03/15 01:38:02;;;;;;;30.67;18.87;;;;;;;-2.18;74.40;98860.06;6243166;22;20192;-83
2022/03/15 01:40:32;;;;;;;31.10;19.60;;;;;;;-2.45;74.49;98812.66;6247503;22;20598;-85
2022/03/15 01:43:01;;;;;;;29.67;18.53;;;;;;;-2.46;74.17;98796.56;6247735;22;20528;-85
2022/03/15 01:45:37;;;;;;;29.00;16.20;;;;;;;-2.30;74.04;98833.44;6249275;22;20239;-84
2022/03/15 01:48:07;;;;;;;29.93;16.23;;;;;;;-2.00;74.27;98886.03;6248184;22;20177;-80
2022/03/15 01:50:39;;;;;;;26.80;15.37;;;;;;;-2.36;74.17;98823.94;6247489;22;20200;-80
2022/03/15 01:53:07;;;;;;;27.57;14.80;;;;;;;-2.42;74.06;98821.22;6270389;22;20511;-87
2022/03/15 01:55:39;;;;;;;28.47;16.20;;;;;;;-2.66;73.57;98795.03;6217834;22;20166;-85
2022/03/15 01:58:06;;;;;;;24.97;15.17;;;;;;;-2.39;74.78;98889.78;6268845;22;20166;-82
2022/03/15 02:00:34;;;;;;;27.43;15.40;;;;;;;-2.88;74.78;98811.16;6270173;22;20164;-86
2022/03/15 02:03:03;;;;;;;24.93;15.67;;;;;;;-2.96;75.27;98815.13;6243749;22;20568;-91
2022/03/15 02:05:31;;;;;;;25.30;15.30;;;;;;;-2.61;75.82;98892.38;6218596;22;20498;-87
2022/03/15 02:08:16;;;;;;;29.40;15.47;;;;;;;-2.90;75.89;98837.25;6243572;22;20251;-82
2022/03/15 02:10:43;;;;;;;27.57;15.40;;;;;;;-2.96;75.99;98843.00;6242920;22;20282;-90
2022/03/15 02:13:11;;;;;;;24.33;14.90;;;;;;;-2.72;75.69;98876.78;6193420;22;20173;-88
2022/03/15 02:15:39;;;;;;;24.27;15.40;;;;;;;-3.03;76.41;98820.75;6218726;22;20173;-88
2022/03/15 02:18:10;;;;;;;22.23;15.70;;;;;;;-2.99;75.67;98830.22;6244183;22;20257;-88
2022/03/15 02:20:38;;;;;;;24.17;14.70;;;;;;;-3.25;75.78;98774.34;6242972;22;20569;-91
2022/03/15 02:23:05;;;;;;;24.80;15.70;;;;;;;-2.99;76.15;98814.16;6218270;22;20172;-86
2022/03/15 02:25:36;;;;;;;23.73;14.27;;;;;;;-2.81;75.69;98840.13;6243558;22;20179;-85
2022/03/15 02:28:03;;;;;;;23.63;14.70;;;;;;;-2.78;75.48;98840.25;6242834;22;20226;-89
2022/03/15 02:30:31;;;;;;;27.33;14.37;;;;;;;-2.47;75.16;98870.91;6217825;22;20200;-83
2022/03/15 02:32:59;;;;;;;22.67;13.93;;;;;;;-2.88;75.05;98795.09;6271050;22;20161;-91
2022/03/15 02:35:26;;;;;;;24.47;14.60;;;;;;;-2.81;74.40;98808.06;6272427;22;20261;-89
2022/03/15 02:37:53;;;;;;;23.80;14.33;;;;;;;-2.61;73.84;98811.25;6275322;22;20168;-89
2022/03/15 02:40:34;;;;;;;23.30;14.63;;;;;;;-2.21;73.04;98862.50;6223129;22;20168;-89
2022/03/15 02:43:04;;;;;;;26.90;15.90;;;;;;;-2.26;73.20;98858.06;6257096;22;20241;-89
2022/03/15 02:45:34;;;;;;;26.27;16.17;;;;;;;-2.47;72.90;98810.03;6252738;22;20805;-88
2022/03/15 02:48:02;;;;;;;26.77;16.97;;;;;;;-2.20;72.44;98825.28;6247046;22;20171;-88
2022/03/15 02:50:30;;;;;;;28.77;18.37;;;;;;;-1.63;71.90;98882.16;6245104;22;20257;-89
2022/03/15 02:52:57;;;;;;;31.57;18.03;;;;;;;-2.20;71.95;98794.84;6244858;22;20556;-89
2022/03/15 02:55:26;;;;;;;28.27;17.20;;;;;;;-1.81;71.17;98883.28;6225499;22;20204;-89
2022/03/15 02:57:53;;;;;;;28.63;17.63;;;;;;;-1.95;71.42;98853.19;6256026;22;20574;-91
2022/03/15 03:00:22;;;;;;;32.43;18.57;;;;;;;-1.87;71.46;98882.22;6272210;22;20250;-89
2022/03/15 03:02:50;;;;;;;28.87;17.33;;;;;;;-1.89;72.10;98912.63;6232587;22;20700;-90
2022/03/15 03:05:21;;;;;;;26.90;17.47;;;;;;;-2.25;72.18;98858.16;6271871;22;20167;-92
2022/03/15 03:07:49;;;;;;;31.47;17.13;;;;;;;-1.86;71.80;98916.97;6252422;22;20184;-89
2022/03/15 03:10:17;;;;;;;30.87;18.37;;;;;;;-1.89;71.68;98904.16;6279813;22;20658;-91
2022/03/15 03:12:49;;;;;;;29.53;18.00;;;;;;;-1.90;71.51;98904.97;6220115;22;20631;-87
2022/03/15 03:15:19;;;;;;;25.97;15.57;;;;;;;-2.40;71.59;98847.47;6242261;22;20181;-86
2022/03/15 03:17:47;;;;;;;26.13;15.87;;;;;;;-2.65;72.00;98801.81;6243456;22;20242;-82
2022/03/15 03:20:19;;;;;;;30.20;15.97;;;;;;;-2.73;72.30;98841.25;6217013;22;20186;-90
2022/03/15 03:22:49;;;;;;;22.27;14.73;;;;;;;-2.45;72.67;98888.72;6217260;22;20194;-88
2022/03/15 03:25:18;;;;;;;19.17;12.53;;;;;;;-3.08;73.20;98831.56;6269837;22;20159;-81
2022/03/15 03:27:48;;;;;;;21.70;13.50;;;;;;;-3.00;75.33;98894.38;6225969;22;20172;-92
2022/03/15 03:30:18;;;;;;;19.37;12.80;;;;;;;-3.08;76.31;98870.41;6224305;22;20196;-91
2022/03/15 03:32:49;;;;;;;21.20;12.17;;;;;;;-2.90;76.35;98877.81;6298183;22;20227;-83
2022/03/15 03:35:17;;;;;;;18.03;11.37;;;;;;;-3.32;76.25;98781.72;6240274;22;20227;-85
2022/03/15 03:37:44;;;;;;;22.17;12.90;;;;;;;-2.81;75.81;98833.41;6240235;22;20229;-87
2022/03/15 03:40:15;;;;;;;24.43;13.73;;;;;;;-2.87;75.40;98791.78;6264579;22;20189;-88
2022/03/15 03:42:43;;;;;;;22.20;14.73;;;;;;;-2.55;75.22;98855.44;6239973;22;20218;-84
2022/03/15 03:45:11;;;;;;;21.60;14.07;;;;;;;-2.76;74.68;98785.41;6292408;22;20176;-86
2022/03/15 03:47:39;;;;;;;23.87;14.23;;;;;;;-2.23;73.83;98843.84;6268400;22;20170;-88
2022/03/15 03:50:08;;;;;;;22.50;14.17;;;;;;;-2.32;73.93;98830.84;6271784;22;20190;-93
2022/03/15 03:52:36;;;;;;;25.33;15.27;;;;;;;-2.67;73.56;98790.78;6268860;22;20179;-90
2022/03/15 03:55:04;;;;;;;24.63;14.63;;;;;;;-2.87;74.70;98801.91;6264744;22;20235;-89
2022/03/15 03:57:31;;;;;;;25.47;14.77;;;;;;;-2.67;74.81;98859.22;6248070;22;20179;-89
2022/03/15 04:00:00;;;;;;;23.60;13.47;;;;;;;-2.67;75.04;98869.34;6247324;22;20168;-88
2022/03/15 04:02:42;;;;;;;23.23;12.80;;;;;;;-2.92;74.48;98811.88;6247778;22;20217;-89
2022/03/15 04:05:10;;;;;;;24.60;12.20;;;;;;;-2.90;74.07;98787.44;6248536;22;20163;-85
2022/03/15 04:07:41;;;;;;;22.13;11.67;;;;;;;-2.28;73.53;98855.50;6222569;22;20162;-90
2022/03/15 04:10:49;;;;;;;24.00;13.63;;;;;;;-1.98;72.73;98866.63;6274474;22;20181;-89
2022/03/15 04:14:11;;;;;;;21.27;12.30;;;;;;;-1.90;71.76;98867.78;6246475;22;20172;-89
2022/03/15 04:17:32;;;;;;;19.53;11.30;;;;;;;-2.36;72.47;98859.47;6272110;22;20220;-86
2022/03/15 04:20:52;;;;;;;23.37;12.27;;;;;;;-2.33;72.79;98851.09;6218902;22;20199;-82
2022/03/15 04:24:14;;;;;;;20.63;10.70;;;;;;;-2.45;73.55;98838.84;6243325;22;20644;-87
2022/03/15 04:27:35;;;;;;;21.03;12.20;;;;;;;-2.64;74.52;98846.66;6221713;22;20169;-88
2022/03/15 04:30:55;;;;;;;23.97;12.17;;;;;;;-2.80;74.54;98854.50;6226734;22;20686;-91
2022/03/15 04:34:17;;;;;;;27.73;14.93;;;;;;;-2.96;76.11;98857.31;6245192;22;20179;-91
2022/03/15 04:37:40;;;;;;;20.40;12.60;;;;;;;-3.25;76.89;98855.38;6270318;22;20200;-90
2022/03/15 04:41:05;;;;;;;24.77;12.93;;;;;;;-3.33;77.33;98850.94;6245443;22;20172;-88
2022/03/15 04:44:25;;;;;;;24.50;13.27;;;;;;;-3.22;77.15;98853.84;6271151;22;20592;-84
2022/03/15 04:47:46;;;;;;;28.07;14.13;;;;;;;-3.09;76.49;98855.19;6272244;22;20616;-88
2022/03/15 04:51:08;;;;;;;30.63;16.47;;;;;;;-3.13;77.04;98855.88;6275654;22;20196;-83
2022/03/15 04:54:29;;;;;;;29.60;16.63;;;;;;;-3.10;77.75;98833.16;6248235;22;20281;-87
2022/03/15 04:57:50;;;;;;;28.67;15.10;;;;;;;-2.93;76.90;98837.16;6276719;22;20189;-86
2022/03/15 05:01:11;;;;;;;26.63;14.97;;;;;;;-2.58;75.77;98850.28;6243949;22;20168;-87
2022/03/15 05:04:32;;;;;;;36.03;17.50;;;;;;;-2.40;74.97;98855.09;6220477;22;20181;-83
2022/03/15 05:07:53;;;;;;;33.57;16.97;;;;;;;-1.97;73.22;98857.34;6242458;22;20178;-90
2022/03/15 05:11:14;;;;;;;29.57;16.80;;;;;;;-1.80;72.79;98862.19;6220364;22;20549;-87
2022/03/15 05:14:35;;;;;;;26.80;15.43;;;;;;;-1.52;71.56;98866.41;6269711;22;20168;-86
2022/03/15 05:17:56;;;;;;;29.67;17.47;;;;;;;-1.26;70.51;98863.00;6269450;22;20165;-91
2022/03/15 05:21:17;;;;;;;24.40;15.77;;;;;;;-1.13;69.80;98879.44;6222312;22;20643;-83
2022/03/15 05:24:38;;;;;;;21.93;14.30;;;;;;;-0.91;69.30;98881.81;6270542;22;20172;-88
2022/03/15 05:27:59;;;;;;;23.60;13.23;;;;;;;-0.69;68.13;98891.75;6246705;22;20172;-91
2022/03/15 05:31:22;;;;;;;29.07;14.67;;;;;;;-0.88;68.13;98879.34;6270500;22;20192;-83
2022/03/15 05:33:53;;;;;;;33.37;13.73;;;;;;;-1.04;67.97;98846.66;6244501;22;20725;-86
2022/03/15 05:36:20;;;;;;;28.53;17.20;;;;;;;-1.32;68.50;98828.91;6243532;22;20169;-85
2022/03/15 05:38:47;;;;;;;24.67;15.63;;;;;;;-1.19;69.33;98861.47;6270361;22;20191;-87
2022/03/15 05:41:14;;;;;;;26.87;14.40;;;;;;;-1.04;68.77;98872.09;6244287;22;20244;-87
2022/03/15 05:43:54;;;;;;;23.30;14.03;;;;;;;-1.16;68.96;98838.69;6270419;22;20186;-88
2022/03/15 05:46:21;;;;;;;38.03;15.97;;;;;;;-0.97;68.50;98848.59;6270535;22;20163;-86
2022/03/15 05:48:56;;;;;;;32.53;17.43;;;;;;;-0.69;67.86;98861.22;6271498;22;20206;-90
2022/03/15 05:51:24;;;;;;;25.50;15.37;;;;;;;-0.46;67.97;98882.19;6221548;22;20192;-87
2022/03/15 05:53:51;;;;;;;21.90;14.00;;;;;;;-0.85;68.00;98798.06;6247121;22;20196;-85
2022/03/15 05:56:20;;;;;;;28.73;14.40;;;;;;;-0.57;68.50;98855.59;6219997;22;20631;-86
2022/03/15 05:58:49;;;;;;;25.27;14.07;;;;;;;-0.02;67.49;98882.53;6276514;22;20413;-83
2022/03/15 06:01:18;;;;;;;27.53;15.23;;;;;;;-0.22;65.99;98784.44;6201892;22;20164;-85
2022/03/15 06:03:46;;;;;;;28.87;15.13;;;;;;;0.47;65.66;98859.09;6226047;22;20195;-88
2022/03/15 06:06:15;;;;;;;22.77;14.27;;;;;;;0.44;64.68;98809.72;6250488;22;20706;-84
2022/03/15 06:08:43;;;;;;;24.33;14.37;;;;;;;0.94;63.96;98851.59;6245111;22;20483;-89
2022/03/15 06:11:11;;;;;;;27.73;14.87;;;;;;;1.13;63.19;98866.47;6243620;22;20287;-90
2022/03/15 06:13:42;;;;;;;27.93;13.30;;;;;;;1.06;64.31;98867.16;6270186;22;20171;-87
2022/03/15 06:16:09;;;;;;;26.67;15.57;;;;;;;0.95;63.39;98828.69;6270404;22;20641;-86
2022/03/15 06:18:38;;;;;;;21.23;13.30;;;;;;;1.15;62.27;98858.03;6270135;22;20164;-86
2022/03/15 06:21:05;;;;;;;29.50;16.13;;;;;;;1.06;62.97;98823.81;6243515;22;20161;-85
2022/03/15 06:23:33;;;;;;;33.73;18.87;;;;;;;1.46;61.77;98849.28;6242655;22;20234;-87
2022/03/15 06:26:00;;;;;;;27.03;16.60;;;;;;;1.96;61.79;98865.50;6270276;22;20164;-82
2022/03/15 06:28:27;;;;;;;26.37;15.63;;;;;;;1.75;60.44;98819.16;6270505;22;20157;-88
2022/03/15 06:30:57;;;;;;;24.97;14.37;;;;;;;1.79;60.20;98826.03;6243726;22;20721;-81
2022/03/15 06:33:24;;;;;;;26.33;16.20;;;;;;;1.96;60.53;98861.25;6270813;22;20236;-86
2022/03/15 06:35:53;;;;;;;29.00;16.43;;;;;;;2.14;60.14;98865.81;6270463;22;20230;-88
2022/03/15 06:38:21;;;;;;;33.00;16.10;;;;;;;2.18;59.57;98840.34;6270813;22;20157;-83
2022/03/15 06:40:49;;;;;;;24.10;15.07;;;;;;;2.57;58.54;98847.75;6244995;22;20226;-87
2022/03/15 06:43:16;;;;;;;27.03;14.53;;;;;;;2.54;57.99;98840.03;6245490;22;20527;-87
2022/03/15 06:45:44;;;;;;;24.73;14.43;;;;;;;2.88;57.77;98864.38;6271269;22;20169;-86
2022/03/15 06:48:11;;;;;;;24.43;13.37;;;;;;;2.88;58.16;98874.63;6272603;22;20180;-84
2022/03/15 06:50:42;;;;;;;23.07;13.77;;;;;;;2.86;57.33;98881.41;6249910;22;20203;-88
2022/03/15 06:53:09;;;;;;;17.77;11.17;;;;;;;2.20;58.35;98784.13;6275283;22;20222;-83
2022/03/15 06:55:36;;;;;;;19.03;10.23;;;;;;;2.76;57.23;98810.50;6249137;22;20199;-84
2022/03/15 06:58:04;;;;;;;20.30;10.87;;;;;;;2.91;56.71;98795.31;6223615;22;20255;-90
2022/03/15 07:00:31;;;;;;;20.57;11.63;;;;;;;3.29;55.21;98838.47;6273540;22;20737;-80
2022/03/15 07:02:58;;;;;;;15.70;9.97;;;;;;;3.32;56.06;98857.28;6243654;22;20246;-79
2022/03/15 07:05:26;;;;;;;22.10;11.67;;;;;;;3.49;56.14;98889.03;6269892;22;20161;-81
2022/03/15 07:07:53;;;;;;;38.27;20.27;;;;;;;3.53;55.91;98890.78;6217426;22;20180;-79
2022/03/15 07:10:20;;;;;;;29.07;17.93;;;;;;;3.37;56.67;98845.38;6241779;22;20180;-80
2022/03/15 07:12:49;;;;;;;41.33;21.87;;;;;;;3.43;56.18;98841.19;6269524;22;20165;-81
2022/03/15 07:15:20;;;;;;;25.87;16.47;;;;;;;3.26;57.35;98817.06;6269220;22;20165;-79
2022/03/15 07:17:57;;;;;;;17.00;11.60;;;;;;;3.45;55.21;98848.88;6242213;22;20259;-83
2022/03/15 07:20:26;;;;;;;19.17;9.80;;;;;;;3.66;55.76;98879.84;6269503;22;20160;-80
2022/03/15 07:22:54;;;;;;;16.10;10.40;;;;;;;3.83;56.17;98898.81;6269417;22;20202;-80
2022/03/15 07:25:22;;;;;;;13.00;8.93;;;;;;;3.98;55.43;98888.72;6216541;22;20172;-84
2022/03/15 07:27:50;;;;;;;17.17;10.07;;;;;;;3.78;54.80;98836.41;6269420;22;20171;-86
2022/03/15 07:30:18;;;;;;;13.27;8.83;;;;;;;3.85;54.07;98820.28;6269810;22;20600;-83
2022/03/15 07:32:47;;;;;;;14.00;9.13;;;;;;;4.07;53.16;98822.16;6216733;22;20321;-81
2022/03/15 07:35:16;;;;;;;13.13;7.70;;;;;;;4.36;52.00;98851.47;6243108;22;20190;-80
2022/03/15 07:37:55;;;;;;;13.03;7.57;;;;;;;4.50;51.61;98885.75;6241852;22;20669;-84
2022/03/15 07:40:24;;;;;;;11.23;7.37;;;;;;;4.27;51.74;98825.75;6244667;22;20161;-79
2022/03/15 07:42:52;;;;;;;10.60;6.77;;;;;;;4.71;50.75;98882.50;6241958;22;20655;-79
2022/03/15 07:45:20;;;;;;;10.53;7.00;;;;;;;4.64;50.72;98830.28;6240814;22;20173;-84
2022/03/15 07:47:48;;;;;;;10.13;6.60;;;;;;;5.05;50.73;98878.44;6269904;22;20161;-80
2022/03/15 07:50:18;;;;;;;9.70;6.73;;;;;;;5.00;50.01;98870.69;6268303;22;20159;-83
2022/03/15 07:52:47;;;;;;;10.13;8.07;;;;;;;5.01;50.41;98858.72;6242903;22;20221;-80
2022/03/15 07:55:15;;;;;;;10.13;8.03;;;;;;;5.31;50.25;98884.53;6242304;22;20189;-80
2022/03/15 07:57:44;;;;;;;11.03;7.70;;;;;;;5.50;49.45;98892.31;6192616;22;20196;-80
2022/03/15 08:00:12;;;;;;;12.07;7.73;;;;;;;5.63;49.36;98881.25;6240908;22;20523;-84
2022/03/15 08:02:39;;;;;;;11.63;7.37;;;;;;;5.66;48.74;98852.13;6244435;22;20711;-82
2022/03/15 08:05:08;;;;;;;11.90;8.80;;;;;;;5.76;48.13;98865.00;6271957;22;20171;-81
2022/03/15 08:07:36;;;;;;;20.07;9.17;;;;;;;5.89;47.83;98834.22;6271909;22;20521;-81
2022/03/15 08:10:08;;;;;;;13.13;7.93;;;;;;;6.08;47.38;98877.09;6245469;22;20170;-83
2022/03/15 08:12:37;;;;;;;19.47;8.77;;;;;;;6.19;47.52;98871.09;6270441;22;20196;-84
2022/03/15 08:15:09;;;;;;;13.07;7.80;;;;;;;6.49;47.41;98875.41;6244809;22;20321;-85
2022/03/15 08:17:41;;;;;;;11.37;7.67;;;;;;;6.31;46.24;98823.94;6245833;22;20197;-81
2022/03/15 08:20:55;;;;;;;10.77;7.37;;;;;;;6.63;46.06;98873.69;6244385;22;20247;-86
2022/03/15 08:22:57;;;;;;;13.40;8.13;;;;;;;6.19;46.22;98808.50;6256973;22;20175;-87
2022/03/15 08:25:24;;;;;;;13.87;7.27;;;;;;;6.53;45.80;98820.50;6243927;22;20221;-84
2022/03/15 08:27:56;;;;;;;10.70;7.60;;;;;;;6.57;45.10;98820.47;6271675;22;20167;-87
2022/03/15 08:30:25;;;;;;;13.23;8.23;;;;;;;7.08;45.39;98854.72;6244669;22;20177;-81
2022/03/15 08:32:54;;;;;;;11.07;7.57;;;;;;;7.33;45.41;98854.63;6246192;22;20193;-85
2022/03/15 08:35:23;;;;;;;11.57;7.13;;;;;;;7.44;44.17;98818.47;6245970;22;20239;-88
2022/03/15 08:37:53;;;;;;;11.07;7.17;;;;;;;7.43;43.58;98803.91;6245451;22;20182;-87
2022/03/15 08:40:22;;;;;;;11.63;8.13;;;;;;;7.89;42.31;98846.59;6224232;22;20164;-82
2022/03/15 08:42:56;;;;;;;11.57;7.37;;;;;;;7.39;42.04;98766.13;6244354;22;20172;-83
2022/03/15 08:45:24;;;;;;;11.93;7.40;;;;;;;8.05;41.22;98840.47;6272061;22;20172;-88
2022/03/15 08:47:53;;;;;;;10.60;7.50;;;;;;;7.80;42.19;98825.16;6219270;22;20203;-87
2022/03/15 08:50:21;;;;;;;9.97;6.60;;;;;;;7.43;41.27;98798.75;6244234;22;20635;-89
2022/03/15 08:52:49;;;;;;;7.23;6.13;;;;;;;7.19;40.25;98721.56;6206458;22;20667;-83
2022/03/15 08:55:17;;;;;;;16.10;8.93;;;;;;;7.34;38.76;98773.00;6243513;22;20598;-84
2022/03/15 08:57:47;;;;;;;20.77;11.33;;;;;;;7.35;38.54;98806.53;6244491;22;20173;-79
2022/03/15 09:00:14;;;;;;;7.73;5.47;;;;;;;7.26;38.38;98752.44;6218139;22;20273;-87
2022/03/15 09:02:47;;;;;;;10.53;5.47;;;;;;;7.34;39.00;98747.25;6244040;22;20536;-83
2022/03/15 09:05:18;;;;;;;13.37;6.47;;;;;;;7.52;39.59;98783.25;6218055;22;20168;-83
2022/03/15 09:07:53;;;;;;;11.03;7.03;;;;;;;7.97;40.01;98819.03;6195510;22;20176;-86
2022/03/15 09:10:29;;;;;;;11.30;6.10;;;;;;;8.27;38.90;98830.00;6271350;22;20608;-85
2022/03/15 09:12:57;;;;;;;9.87;6.13;;;;;;;8.31;39.30;98834.28;6243611;22;20196;-85
2022/03/15 09:15:25;;;;;;;11.37;6.73;;;;;;;8.27;39.70;98822.25;6218439;22;20167;-84
2022/03/15 09:17:53;;;;;;;9.93;6.93;;;;;;;8.49;41.08;98829.81;6243690;22;20161;-85
2022/03/15 09:20:27;;;;;;;12.00;6.83;;;;;;;8.58;39.77;98792.72;6244423;22;20519;-82
2022/03/15 09:22:55;;;;;;;12.90;7.73;;;;;;;8.49;39.36;98746.38;6168762;22;20193;-87
2022/03/15 09:25:26;;;;;;;12.77;7.73;;;;;;;8.83;39.45;98779.56;6271334;22;20171;-88
2022/03/15 09:27:54;;;;;;;11.57;7.20;;;;;;;9.07;38.66;98798.25;6218448;22;20179;-87
2022/03/15 09:30:37;;;;;;;12.00;6.97;;;;;;;9.24;38.23;98801.47;6226710;22;20183;-88
2022/03/15 09:33:07;;;;;;;11.23;7.67;;;;;;;9.27;39.26;98773.88;6243918;22;20275;-80
2022/03/15 09:35:35;;;;;;;9.20;6.40;;;;;;;9.16;37.69;98742.13;6218235;22;20166;-86
2022/03/15 09:38:03;;;;;;;8.67;5.63;;;;;;;8.97;37.97;98740.63;6245709;22;20169;-89
2022/03/15 09:40:31;;;;;;;12.97;6.60;;;;;;;9.17;38.87;98736.06;6272151;22;20157;-83
2022/03/15 09:43:11;;;;;;;12.97;8.20;;;;;;;9.01;38.07;98713.88;6245840;22;20197;-84
2022/03/15 09:45:40;;;;;;;13.03;5.70;;;;;;;9.41;37.85;98776.25;6214196;22;20185;-86
2022/03/15 09:48:13;;;;;;;10.73;6.40;;;;;;;9.31;37.52;98743.66;6243084;22;20175;-87
2022/03/15 09:50:42;;;;;;;9.93;6.20;;;;;;;9.66;37.00;98785.41;6233517;22;20175;-83
2022/03/15 09:53:10;;;;;;;12.17;6.43;;;;;;;9.23;36.81;98732.56;6256427;22;20202;-84
2022/03/15 09:55:40;;;;;;;8.20;5.10;;;;;;;9.59;35.67;98743.25;6248204;22;20510;-81
2022/03/15 09:58:09;;;;;;;10.73;5.43;;;;;;;9.63;36.10;98734.56;6244649;22;20505;-83
2022/03/15 10:00:37;;;;;;;12.73;5.63;;;;;;;9.39;35.24;98745.25;6245379;22;20176;-83
2022/03/15 10:03:04;;;;;;;9.17;5.67;;;;;;;9.53;34.07;98717.47;6244219;22;20179;-85
2022/03/15 10:05:32;;;;;;;7.83;4.87;;;;;;;9.34;35.56;98661.72;6243902;22;20624;-86
2022/03/15 10:08:00;;;;;;;7.77;5.77;;;;;;;9.78;34.34;98723.97;6244339;22;20702;-86
2022/03/15 10:10:39;;;;;;;8.37;5.53;;;;;;;9.96;33.21;98696.06;6270389;22;20165;-86
2022/03/15 10:13:06;;;;;;;9.00;5.43;;;;;;;10.12;32.58;98711.34;6271474;22;20635;-84
2022/03/15 10:15:34;;;;;;;9.80;5.97;;;;;;;10.48;33.04;98746.97;6217905;22;20579;-84
2022/03/15 10:18:04;;;;;;;7.57;3.97;;;;;;;10.42;32.35;98743.63;6218935;22;20260;-85
2022/03/15 10:20:40;;;;;;;7.87;5.07;;;;;;;9.89;32.88;98704.84;6270277;22;20165;-87
2022/03/15 10:23:11;;;;;;;8.17;5.43;;;;;;;9.85;33.76;98735.06;6193789;22;20671;-85
2022/03/15 10:25:42;;;;;;;7.93;5.13;;;;;;;9.14;33.47;98630.16;6218360;22;20181;-89
2022/03/15 10:28:10;;;;;;;20.37;9.97;;;;;;;9.74;33.86;98691.28;6221226;22;20269;-83
2022/03/15 10:30:43;;;;;;;8.40;4.73;;;;;;;9.83;33.63;98680.75;6219585;22;20178;-80
2022/03/15 10:33:13;;;;;;;6.97;4.97;;;;;;;9.43;33.12;98612.47;6242109;22;20286;-86
2022/03/15 10:35:43;;;;;;;11.53;7.03;;;;;;;9.83;33.48;98700.59;6244032;22;20172;-86
2022/03/15 10:38:10;;;;;;;10.27;5.73;;;;;;;9.86;33.29;98708.31;6270969;22;20202;-79
2022/03/15 10:40:42;;;;;;;7.23;5.03;;;;;;;10.10;32.92;98699.31;6243592;22;20171;-80
2022/03/15 10:43:15;;;;;;;8.53;5.50;;;;;;;10.21;32.43;98697.41;6218388;22;20558;-83
2022/03/15 10:45:55;;;;;;;6.73;5.33;;;;;;;10.42;33.18;98689.25;6269809;22;20160;-80
2022/03/15 10:48:25;;;;;;;6.63;5.00;;;;;;;10.17;32.72;98649.16;6217783;22;20264;-81
2022/03/15 10:51:09;;;;;;;7.10;5.13;;;;;;;10.34;32.45;98626.41;6270754;22;20161;-78
2022/03/15 10:53:43;;;;;;;8.40;5.13;;;;;;;10.76;31.94;98666.97;6243334;22;20208;-79
2022/03/15 10:56:23;;;;;;;5.33;4.23;;;;;;;10.69;31.70;98662.81;6273820;22;20188;-79
2022/03/15 10:58:59;;;;;;;6.70;4.77;;;;;;;10.36;32.05;98640.16;6245936;22;20168;-82
2022/03/15 11:01:34;;;;;;;7.67;4.83;;;;;;;10.84;31.65;98665.06;6243565;22;20165;-82
2022/03/15 11:04:06;;;;;;;9.40;5.40;;;;;;;10.87;31.38;98667.63;6242947;22;20185;-83
2022/03/15 11:06:46;;;;;;;9.03;5.07;;;;;;;11.00;31.37;98653.53;6269462;22;20163;-84
2022/03/15 11:09:42;;;;;;;8.90;4.87;;;;;;;10.68;31.26;98569.56;6244978;22;20208;-83
2022/03/15 11:12:11;;;;;;;10.47;4.87;;;;;;;11.19;31.45;98651.38;6269150;22;20204;-82
2022/03/15 11:14:54;;;;;;;8.63;5.00;;;;;;;11.07;31.38;98600.63;6243378;22;20227;-80
2022/03/15 11:17:24;;;;;;;6.73;4.47;;;;;;;10.95;31.16;98549.06;6241748;22;20174;-83
2022/03/15 11:19:53;;;;;;;6.23;5.00;;;;;;;10.59;31.19;98571.47;6243939;22;20165;-80
2022/03/15 11:22:24;;;;;;;8.23;5.40;;;;;;;11.10;30.67;98612.69;6242869;22;20960;-81
2022/03/15 11:25:11;;;;;;;10.93;5.37;;;;;;;11.41;31.61;98627.50;6270108;22;20195;-83
2022/03/15 11:27:40;;;;;;;9.23;6.37;;;;;;;11.32;31.32;98600.91;6269373;22;20172;-86
2022/03/15 11:30:10;;;;;;;10.40;5.20;;;;;;;11.33;31.40;98610.41;6242558;22;20244;-85
2022/03/15 11:32:39;;;;;;;8.13;5.53;;;;;;;11.52;31.54;98584.88;6269697;22;20217;-82
2022/03/15 11:35:11;;;;;;;10.47;5.70;;;;;;;11.70;30.93;98589.63;6242869;22;20659;-85
2022/03/15 11:37:42;;;;;;;7.07;4.77;;;;;;;11.76;30.59;98599.84;6244942;22;20501;-85
2022/03/15 11:40:11;;;;;;;8.27;5.27;;;;;;;11.25;30.43;98513.78;6221117;22;20633;-83
2022/03/15 11:42:44;;;;;;;9.80;5.87;;;;;;;11.24;30.18;98505.16;6274095;22;20639;-86
2022/03/15 11:45:33;;;;;;;6.60;4.70;;;;;;;11.46;29.81;98570.28;6276171;22;20569;-84
2022/03/15 11:48:23;;;;;;;12.70;7.10;;;;;;;11.26;30.52;98570.78;6247598;22;20173;-86
2022/03/15 11:51:23;;;;;;;9.53;4.70;;;;;;;11.35;30.18;98580.09;6247505;22;20174;-87
2022/03/15 11:54:03;;;;;;;6.47;4.67;;;;;;;11.48;30.22;98582.34;6240946;23;20236;-86
2022/03/15 11:56:45;;;;;;;9.00;3.83;;;;;;;11.72;29.97;98580.06;6215891;22;20207;-87
2022/03/15 11:59:16;;;;;;;8.33;4.90;;;;;;;11.67;29.44;98556.81;6247099;22;20640;-86